createdAt,value
2023-01-18T00:00:16.612Z,97410.69
2023-01-18T00:01:02.088Z,97411.81
2023-01-18T00:01:48.100Z,97420.44
2023-01-18T00:02:33.110Z,97418.06
2023-01-18T00:03:18.129Z,97414.19
2023-01-18T00:03:59.645Z,97414.56
2023-01-18T00:04:44.759Z,97417.63
2023-01-18T00:05:29.383Z,97417.28
2023-01-18T00:06:16.629Z,97419.22
2023-01-18T00:07:00.531Z,97412.19
2023-01-18T00:07:45.459Z,97414.63
2023-01-18T00:08:31.118Z,97417.00
2023-01-18T00:09:12.393Z,97418.50
2023-01-18T00:09:58.271Z,97418.16
2023-01-18T00:10:42.991Z,97422.47
2023-01-18T00:11:27.313Z,97420.09
2023-01-18T00:12:10.986Z,97422.38
2023-01-18T00:12:56.617Z,97423.88
2023-01-18T00:13:41.033Z,97425.88
2023-01-18T00:14:22.155Z,97418.06
2023-01-18T00:15:08.477Z,97422.72
2023-01-18T00:15:53.329Z,97416.84
2023-01-18T00:16:37.427Z,97409.19
2023-01-18T00:17:18.872Z,97418.41
2023-01-18T00:18:02.706Z,97416.84
2023-01-18T00:18:48.224Z,97411.03
2023-01-18T00:19:32.723Z,97420.00
2023-01-18T00:20:17.208Z,97417.28
2023-01-18T00:21:04.843Z,97422.38
2023-01-18T00:21:49.004Z,97414.19
2023-01-18T00:22:30.369Z,97417.28
2023-01-18T00:23:15.723Z,97416.13
2023-01-18T00:24:00.818Z,97417.38
2023-01-18T00:24:44.791Z,97419.66
2023-01-18T00:25:29.519Z,97415.00
2023-01-18T00:26:16.621Z,97420.44
2023-01-18T00:26:58.540Z,97421.69
2023-01-18T00:27:43.525Z,97412.72
2023-01-18T00:28:31.581Z,97415.34
2023-01-18T00:29:17.248Z,97419.22
2023-01-18T00:30:03.948Z,97416.94
2023-01-18T00:30:51.804Z,97417.38
2023-01-18T00:31:36.501Z,97420.09
2023-01-18T00:32:19.298Z,97425.88
2023-01-18T00:33:04.302Z,97418.16
2023-01-18T00:33:52.099Z,97423.25
2023-01-18T00:34:38.301Z,97414.63
2023-01-18T00:35:24.565Z,97418.06
2023-01-18T00:36:12.436Z,97424.84
2023-01-18T00:36:57.873Z,97407.59
2023-01-18T00:37:40.105Z,97418.50
2023-01-18T00:38:27.196Z,97425.88
2023-01-18T00:39:11.081Z,97427.03
2023-01-18T00:39:54.678Z,97418.50
2023-01-18T00:40:37.957Z,97417.28
2023-01-18T00:41:22.530Z,97421.59
2023-01-18T00:42:03.762Z,97422.38
2023-01-18T00:42:49.645Z,97421.22
2023-01-18T00:43:37.245Z,97423.25
2023-01-18T00:44:22.017Z,97415.78
2023-01-18T00:45:06.987Z,97425.09
2023-01-18T00:45:52.729Z,97429.41
2023-01-18T00:46:38.893Z,97424.41
2023-01-18T00:47:24.266Z,97422.03
2023-01-18T00:48:07.009Z,97422.03
2023-01-18T00:48:51.943Z,97421.69
2023-01-18T00:49:40.112Z,97419.22
2023-01-18T00:50:23.237Z,97423.16
2023-01-18T00:51:08.220Z,97420.78
2023-01-18T00:51:58.624Z,97422.38
2023-01-18T00:52:40.383Z,97423.25
2023-01-18T00:53:26.412Z,97427.13
2023-01-18T00:54:10.590Z,97427.47
2023-01-18T00:54:54.867Z,97424.31
2023-01-18T00:55:37.196Z,97424.66
2023-01-18T00:56:21.239Z,97426.69
2023-01-18T00:57:05.652Z,97428.63
2023-01-18T00:57:47.199Z,97427.81
2023-01-18T00:58:30.454Z,97424.84
2023-01-18T00:59:15.483Z,97422.81
2023-01-18T00:59:59.822Z,97422.38
2023-01-18T01:00:44.209Z,97424.66
2023-01-18T01:01:27.704Z,97425.00
2023-01-18T01:02:11.807Z,97424.31
2023-01-18T01:02:53.180Z,97428.63
2023-01-18T01:03:37.261Z,97428.53
2023-01-18T01:04:21.599Z,97427.38
2023-01-18T01:05:05.112Z,97430.53
2023-01-18T01:05:49.653Z,97429.41
2023-01-18T01:06:33.599Z,97435.56
2023-01-18T01:07:17.428Z,97430.09
2023-01-18T01:07:59.926Z,97433.63
2023-01-18T01:08:45.184Z,97425.44
2023-01-18T01:09:29.424Z,97430.53
2023-01-18T01:10:14.080Z,97429.41
2023-01-18T01:11:00.942Z,97428.97
2023-01-18T01:11:43.981Z,97425.00
2023-01-18T01:12:28.834Z,97422.63
2023-01-18T01:13:14.275Z,97425.34
2023-01-18T01:14:01.224Z,97424.41
2023-01-18T01:14:45.566Z,97429.31
2023-01-18T01:15:30.028Z,97436.34
2023-01-18T01:16:16.657Z,97431.69
2023-01-18T01:17:04.195Z,97436.34
2023-01-18T01:17:46.403Z,97424.66
2023-01-18T01:18:31.757Z,97427.81
2023-01-18T01:19:19.658Z,97432.81
2023-01-18T01:20:05.193Z,97433.97
2023-01-18T01:20:53.755Z,97434.06
2023-01-18T01:21:40.597Z,97431.69
2023-01-18T01:22:26.171Z,97432.75
2023-01-18T01:23:09.126Z,97436.34
2023-01-18T01:23:54.251Z,97440.22
2023-01-18T01:24:39.187Z,97436.78
2023-01-18T01:25:24.145Z,97438.63
2023-01-18T01:26:08.806Z,97438.63
2023-01-18T01:26:53.449Z,97431.59
2023-01-18T01:27:40.491Z,97442.94
2023-01-18T01:28:22.877Z,97442.22
2023-01-18T01:29:07.633Z,97441.78
2023-01-18T01:29:53.015Z,97440.31
2023-01-18T01:30:41.285Z,97438.63
2023-01-18T01:31:25.807Z,97441.44
2023-01-18T01:32:10.847Z,97437.13
2023-01-18T01:32:55.903Z,97441.00
2023-01-18T01:33:39.291Z,97441.44
2023-01-18T01:34:23.603Z,97440.31
2023-01-18T01:35:08.517Z,97440.31
2023-01-18T01:35:53.255Z,97436.69
2023-01-18T01:36:38.102Z,97438.28
2023-01-18T01:37:24.282Z,97433.19
2023-01-18T01:38:05.956Z,97434.41
2023-01-18T01:38:50.485Z,97436.00
2023-01-18T01:39:38.578Z,97429.31
2023-01-18T01:40:25.476Z,97435.91
2023-01-18T01:41:13.097Z,97433.63
2023-01-18T01:42:00.390Z,97436.69
2023-01-18T01:42:43.327Z,97433.97
2023-01-18T01:43:29.865Z,97431.69
2023-01-18T01:44:17.753Z,97435.91
2023-01-18T01:45:03.555Z,97436.34
2023-01-18T01:45:47.789Z,97439.41
2023-01-18T01:46:32.797Z,97448.28
2023-01-18T01:47:18.200Z,97438.19
2023-01-18T01:48:04.059Z,97438.97
2023-01-18T01:48:48.424Z,97440.22
2023-01-18T01:49:32.965Z,97443.28
2023-01-18T01:50:17.727Z,97444.06
2023-01-18T01:51:05.182Z,97440.13
2023-01-18T01:51:46.756Z,97446.44
2023-01-18T01:52:32.733Z,97442.59
2023-01-18T01:53:16.690Z,97442.16
2023-01-18T01:54:02.835Z,97445.22
2023-01-18T01:54:48.659Z,97451.09
2023-01-18T01:55:34.338Z,97438.63
2023-01-18T01:56:18.309Z,97448.81
2023-01-18T01:56:59.931Z,97446.34
2023-01-18T01:57:45.199Z,97453.75
2023-01-18T01:58:33.525Z,97445.66
2023-01-18T01:59:18.916Z,97448.28
2023-01-18T02:00:03.820Z,97455.75
2023-01-18T02:00:51.480Z,97445.56
2023-01-18T02:01:37.224Z,97451.56
2023-01-18T02:02:19.928Z,97447.16
2023-01-18T02:03:06.816Z,97457.25
2023-01-18T02:03:50.031Z,97459.28
2023-01-18T02:04:33.690Z,97449.53
2023-01-18T02:05:17.091Z,97457.69
2023-01-18T02:06:00.752Z,97454.28
2023-01-18T02:06:44.617Z,97459.28
2023-01-18T02:07:28.577Z,97440.56
2023-01-18T02:08:11.083Z,97461.56
2023-01-18T02:08:56.261Z,97459.63
2023-01-18T02:09:41.712Z,97455.31
2023-01-18T02:10:27.917Z,97456.47
2023-01-18T02:11:14.388Z,97460.31
2023-01-18T02:11:58.268Z,97461.13
2023-01-18T02:12:42.118Z,97455.66
2023-01-18T02:13:25.738Z,97467.47
2023-01-18T02:14:10.431Z,97460.78
2023-01-18T02:15:00.913Z,97466.31
2023-01-18T02:15:47.172Z,97467.34
2023-01-18T02:16:30.779Z,97466.22
2023-01-18T02:17:12.677Z,97462.69
2023-01-18T02:17:56.853Z,97460.78
2023-01-18T02:18:44.531Z,97467.00
2023-01-18T02:19:30.632Z,97467.09
2023-01-18T02:20:18.471Z,97470.53
2023-01-18T02:21:04.290Z,97469.84
2023-01-18T02:21:49.627Z,97467.47
2023-01-18T02:22:35.060Z,97473.34
2023-01-18T02:23:19.712Z,97470.88
2023-01-18T02:24:03.894Z,97471.66
2023-01-18T02:24:51.550Z,97472.91
2023-01-18T02:25:39.316Z,97473.69
2023-01-18T02:26:25.616Z,97471.41
2023-01-18T02:27:09.831Z,97469.38
2023-01-18T02:27:57.632Z,97470.97
2023-01-18T02:28:42.587Z,97470.19
2023-01-18T02:29:30.455Z,97475.19
2023-01-18T02:30:16.564Z,97464.38
2023-01-18T02:31:04.843Z,97472.13
2023-01-18T02:31:51.328Z,97479.16
2023-01-18T02:32:34.160Z,97468.59
2023-01-18T02:33:19.085Z,97475.53
2023-01-18T02:34:05.380Z,97475.63
2023-01-18T02:34:52.731Z,97472.13
2023-01-18T02:35:37.826Z,97481.09
2023-01-18T02:36:24.059Z,97482.22
2023-01-18T02:37:08.545Z,97475.19
2023-01-18T02:37:53.335Z,97472.00
2023-01-18T02:38:37.504Z,97469.28
2023-01-18T02:39:22.509Z,97479.06
2023-01-18T02:40:07.973Z,97477.47
2023-01-18T02:40:52.689Z,97483.72
2023-01-18T02:41:40.508Z,97484.59
2023-01-18T02:42:25.236Z,97480.97
2023-01-18T02:43:09.406Z,97485.28
2023-01-18T02:43:52.836Z,97477.13
2023-01-18T02:44:37.063Z,97477.47
2023-01-18T02:45:21.424Z,97487.66
2023-01-18T02:46:05.024Z,97480.72
2023-01-18T02:46:49.220Z,97479.16
2023-01-18T02:47:34.124Z,97478.69
2023-01-18T02:48:15.432Z,97478.25
2023-01-18T02:48:59.792Z,97483.25
2023-01-18T02:49:43.996Z,97481.34
2023-01-18T02:50:27.101Z,97483.34
2023-01-18T02:51:12.031Z,97486.00
2023-01-18T02:51:55.624Z,97484.06
2023-01-18T02:52:39.166Z,97481.59
2023-01-18T02:53:20.768Z,97491.34
2023-01-18T02:54:05.763Z,97482.47
2023-01-18T02:54:49.213Z,97486.34
2023-01-18T02:55:33.515Z,97487.13
2023-01-18T02:56:18.899Z,97492.91
2023-01-18T02:57:03.776Z,97489.94
2023-01-18T02:57:48.868Z,97486.00
2023-01-18T02:58:33.177Z,97489.06
2023-01-18T02:59:17.673Z,97490.28
2023-01-18T03:00:01.387Z,97492.91
2023-01-18T03:00:46.062Z,97499.25
2023-01-18T03:01:30.000Z,97498.22
2023-01-18T03:02:13.775Z,97501.28
2023-01-18T03:02:57.705Z,97505.94
2023-01-18T03:03:38.527Z,97500.84
2023-01-18T03:04:22.791Z,97500.84
2023-01-18T03:05:07.701Z,97505.50
2023-01-18T03:05:50.877Z,97504.00
2023-01-18T03:06:35.179Z,97501.97
2023-01-18T03:07:18.652Z,97507.09
2023-01-18T03:08:01.508Z,97507.97
2023-01-18T03:08:43.331Z,97504.81
2023-01-18T03:09:30.700Z,97503.13
2023-01-18T03:10:18.347Z,97508.56
2023-01-18T03:11:03.185Z,97509.81
2023-01-18T03:11:49.011Z,97507.78
2023-01-18T03:12:36.106Z,97505.75
2023-01-18T03:13:23.931Z,97500.41
2023-01-18T03:14:06.366Z,97506.19
2023-01-18T03:14:53.401Z,97505.50
2023-01-18T03:15:38.347Z,97504.72
2023-01-18T03:16:25.440Z,97504.63
2023-01-18T03:17:09.332Z,97500.75
2023-01-18T03:17:54.233Z,97506.88
2023-01-18T03:18:41.515Z,97508.13
2023-01-18T03:19:26.630Z,97502.34
2023-01-18T03:20:11.796Z,97505.06
2023-01-18T03:20:56.322Z,97509.38
2023-01-18T03:21:41.873Z,97510.50
2023-01-18T03:22:29.832Z,97499.25
2023-01-18T03:23:15.416Z,97507.88
2023-01-18T03:24:00.886Z,97504.81
2023-01-18T03:24:43.431Z,97499.16
2023-01-18T03:25:28.446Z,97505.50
2023-01-18T03:26:16.926Z,97507.09
2023-01-18T03:27:04.662Z,97505.94
2023-01-18T03:27:49.772Z,97508.66
2023-01-18T03:28:34.500Z,97498.81
2023-01-18T03:29:18.518Z,97509.38
2023-01-18T03:30:00.966Z,97506.63
2023-01-18T03:30:46.271Z,97498.81
2023-01-18T03:31:30.815Z,97501.19
2023-01-18T03:32:14.970Z,97501.53
2023-01-18T03:33:01.147Z,97500.41
2023-01-18T03:33:49.283Z,97507.00
2023-01-18T03:34:35.012Z,97501.53
2023-01-18T03:35:16.869Z,97498.72
2023-01-18T03:36:03.597Z,97508.47
2023-01-18T03:36:48.969Z,97501.88
2023-01-18T03:37:35.881Z,97504.25
2023-01-18T03:38:17.689Z,97504.72
2023-01-18T03:39:05.227Z,97503.91
2023-01-18T03:39:46.929Z,97505.50
2023-01-18T03:40:33.865Z,97507.53
2023-01-18T03:41:17.741Z,97510.94
2023-01-18T03:42:03.498Z,97514.81
2023-01-18T03:42:50.339Z,97514.81
2023-01-18T03:43:35.978Z,97512.09
2023-01-18T03:44:21.011Z,97508.22
2023-01-18T03:45:07.959Z,97515.94
2023-01-18T03:45:52.968Z,97510.06
2023-01-18T03:46:37.437Z,97514.03
2023-01-18T03:47:24.516Z,97512.09
2023-01-18T03:48:08.788Z,97510.84
2023-01-18T03:48:52.514Z,97514.38
2023-01-18T03:49:35.091Z,97515.50
2023-01-18T03:50:20.031Z,97517.09
2023-01-18T03:51:04.086Z,97518.22
2023-01-18T03:51:48.247Z,97513.94
2023-01-18T03:52:34.067Z,97527.19
2023-01-18T03:53:17.323Z,97523.44
2023-01-18T03:54:02.074Z,97514.81
2023-01-18T03:54:45.563Z,97521.16
2023-01-18T03:55:31.124Z,97519.13
2023-01-18T03:56:16.848Z,97524.56
2023-01-18T03:57:04.583Z,97512.44
2023-01-18T03:57:50.721Z,97518.22
2023-01-18T03:58:39.043Z,97520.25
2023-01-18T03:59:24.366Z,97523.00
2023-01-18T04:00:07.443Z,97520.16
2023-01-18T04:00:51.419Z,97525.72
2023-01-18T04:01:38.573Z,97530.28
2023-01-18T04:02:23.340Z,97531.97
2023-01-18T04:03:07.744Z,97537.50
2023-01-18T04:03:51.611Z,97534.78
2023-01-18T04:04:33.649Z,97536.63
2023-01-18T04:05:21.676Z,97533.88
2023-01-18T04:06:09.748Z,97533.88
2023-01-18T04:06:56.785Z,97539.00
2023-01-18T04:07:41.033Z,97529.13
2023-01-18T04:08:25.965Z,97530.63
2023-01-18T04:09:11.345Z,97537.75
2023-01-18T04:09:58.282Z,97541.97
2023-01-18T04:10:43.733Z,97545.22
2023-01-18T04:11:32.385Z,97536.72
2023-01-18T04:12:20.327Z,97531.59
2023-01-18T04:13:06.894Z,97539.00
2023-01-18T04:13:53.688Z,97537.75
2023-01-18T04:14:35.207Z,97538.19
2023-01-18T04:15:19.352Z,97542.16
2023-01-18T04:16:06.288Z,97537.06
2023-01-18T04:16:50.447Z,97533.53
2023-01-18T04:17:36.285Z,97540.56
2023-01-18T04:18:23.824Z,97541.97
2023-01-18T04:19:07.175Z,97538.44
2023-01-18T04:19:49.320Z,97546.63
2023-01-18T04:20:36.989Z,97549.34
2023-01-18T04:21:19.855Z,97546.97
2023-01-18T04:22:04.168Z,97547.50
2023-01-18T04:22:48.980Z,97550.69
2023-01-18T04:23:33.414Z,97552.16
2023-01-18T04:24:17.915Z,97552.06
2023-01-18T04:25:00.126Z,97552.16
2023-01-18T04:25:45.787Z,97546.28
2023-01-18T04:26:29.816Z,97551.38
2023-01-18T04:27:17.500Z,97551.03
2023-01-18T04:28:02.607Z,97546.72
2023-01-18T04:28:50.238Z,97550.34
2023-01-18T04:29:34.656Z,97551.13
2023-01-18T04:30:19.425Z,97553.50
2023-01-18T04:31:02.590Z,97548.31
2023-01-18T04:31:47.289Z,97555.69
2023-01-18T04:32:30.965Z,97555.69
2023-01-18T04:33:13.529Z,97559.88
2023-01-18T04:33:58.273Z,97552.41
2023-01-18T04:34:44.279Z,97557.50
2023-01-18T04:35:27.183Z,97557.72
2023-01-18T04:36:13.720Z,97563.84
2023-01-18T04:36:59.929Z,97561.47
2023-01-18T04:37:47.938Z,97547.84
2023-01-18T04:38:34.771Z,97556.03
2023-01-18T04:39:17.927Z,97559.31
2023-01-18T04:40:03.131Z,97557.63
2023-01-18T04:40:48.338Z,97550.56
2023-01-18T04:41:32.277Z,97554.88
2023-01-18T04:42:16.849Z,97559.31
2023-01-18T04:43:03.684Z,97558.41
2023-01-18T04:43:48.484Z,97559.09
2023-01-18T04:44:32.078Z,97553.66
2023-01-18T04:45:17.008Z,97562.28
2023-01-18T04:45:59.786Z,97566.13
2023-01-18T04:46:44.674Z,97567.72
2023-01-18T04:47:29.284Z,97565.69
2023-01-18T04:48:14.458Z,97567.72
2023-01-18T04:48:59.806Z,97568.97
2023-01-18T04:49:43.432Z,97566.94
2023-01-18T04:50:28.756Z,97566.94
2023-01-18T04:51:14.996Z,97572.81
2023-01-18T04:52:00.539Z,97570.78
2023-01-18T04:52:47.335Z,97570.09
2023-01-18T04:53:34.080Z,97567.81
2023-01-18T04:54:19.003Z,97569.75
2023-01-18T04:55:01.680Z,97567.72
2023-01-18T04:55:48.391Z,97568.16
2023-01-18T04:56:33.185Z,97566.03
2023-01-18T04:57:18.372Z,97567.63
2023-01-18T04:58:06.181Z,97571.59
2023-01-18T04:58:50.689Z,97570.44
2023-01-18T04:59:36.031Z,97571.59
2023-01-18T05:00:20.326Z,97570.44
2023-01-18T05:01:06.719Z,97571.59
2023-01-18T05:01:51.339Z,97574.75
2023-01-18T05:02:36.109Z,97579.41
2023-01-18T05:03:21.035Z,97578.16
2023-01-18T05:04:06.785Z,97577.81
2023-01-18T05:04:49.101Z,97576.25
2023-01-18T05:05:35.101Z,97572.72
2023-01-18T05:06:20.300Z,97582.47
2023-01-18T05:07:05.439Z,97584.06
2023-01-18T05:07:50.089Z,97580.09
2023-01-18T05:08:33.370Z,97572.72
2023-01-18T05:09:17.407Z,97582.94
2023-01-18T05:09:58.834Z,97572.63
2023-01-18T05:10:43.371Z,97575.09
2023-01-18T05:11:26.354Z,97581.00
2023-01-18T05:12:09.926Z,97579.75
2023-01-18T05:12:54.238Z,97576.94
2023-01-18T05:13:38.288Z,97571.59
2023-01-18T05:14:22.908Z,97584.06
2023-01-18T05:15:07.829Z,97580.88
2023-01-18T05:15:50.421Z,97579.66
2023-01-18T05:16:35.620Z,97582.03
2023-01-18T05:17:23.108Z,97585.91
2023-01-18T05:18:06.967Z,97589.84
2023-01-18T05:18:50.342Z,97587.03
2023-01-18T05:19:36.463Z,97592.13
2023-01-18T05:20:18.426Z,97593.28
2023-01-18T05:21:05.458Z,97596.09
2023-01-18T05:21:48.908Z,97591.34
2023-01-18T05:22:33.402Z,97598.47
2023-01-18T05:23:16.480Z,97600.41
2023-01-18T05:24:00.248Z,97602.00
2023-01-18T05:24:44.844Z,97606.41
2023-01-18T05:25:27.358Z,97607.00
2023-01-18T05:26:12.300Z,97606.22
2023-01-18T05:26:59.288Z,97612.91
2023-01-18T05:27:43.253Z,97614.03
2023-01-18T05:28:29.127Z,97616.66
2023-01-18T05:29:14.478Z,97609.63
2023-01-18T05:29:58.388Z,97611.22
2023-01-18T05:30:39.748Z,97609.38
2023-01-18T05:31:19.020Z,97609.63
2023-01-18T05:31:50.566Z,97616.88
2023-01-18T05:32:22.037Z,97608.94
2023-01-18T05:32:53.440Z,97605.84
2023-01-18T05:33:24.901Z,97608.94
2023-01-18T05:33:56.377Z,97608.47
2023-01-18T05:34:27.851Z,97614.03
2023-01-18T05:34:59.264Z,97615.50
2023-01-18T05:35:30.731Z,97615.97
2023-01-18T05:36:02.183Z,97612.44
2023-01-18T05:36:33.714Z,97619.03
2023-01-18T05:37:05.165Z,97618.59
2023-01-18T05:37:36.632Z,97617.56
2023-01-18T05:38:08.040Z,97616.31
2023-01-18T05:38:39.407Z,97622.91
2023-01-18T05:39:10.831Z,97624.94
2023-01-18T05:39:42.257Z,97619.81
2023-01-18T05:40:13.686Z,97627.31
2023-01-18T05:40:45.092Z,97622.22
2023-01-18T05:41:16.579Z,97621.41
2023-01-18T05:41:48.057Z,97625.38
2023-01-18T05:42:19.584Z,97622.22
2023-01-18T05:42:51.012Z,97632.31
2023-01-18T05:43:22.434Z,97626.06
2023-01-18T05:43:53.875Z,97624.03
2023-01-18T05:44:25.285Z,97626.75
2023-01-18T05:44:56.714Z,97625.28
2023-01-18T05:45:28.483Z,97629.25
2023-01-18T05:46:00.023Z,97630.38
2023-01-18T05:46:31.465Z,97634.78
2023-01-18T05:47:03.128Z,97633.91
2023-01-18T05:47:34.566Z,97631.50
2023-01-18T05:48:05.959Z,97634.59
2023-01-18T05:48:37.458Z,97633.78
2023-01-18T05:49:08.844Z,97630.28
2023-01-18T05:49:41.945Z,97627.91
2023-01-18T05:50:17.893Z,97631.06
2023-01-18T05:50:49.332Z,97633.78
2023-01-18T05:51:20.764Z,97638.09
2023-01-18T05:51:52.157Z,97638.09
2023-01-18T05:52:23.540Z,97635.38
2023-01-18T05:52:54.971Z,97638.78
2023-01-18T05:53:26.385Z,97630.16
2023-01-18T05:53:57.924Z,97638.44
2023-01-18T05:54:29.370Z,97638.78
2023-01-18T05:55:00.774Z,97633.34
2023-01-18T05:55:32.321Z,97636.84
2023-01-18T05:56:03.755Z,97647.75
2023-01-18T05:56:35.142Z,97640.38
2023-01-18T05:57:06.603Z,97644.69
2023-01-18T05:57:37.983Z,97645.94
2023-01-18T05:58:09.404Z,97637.66
2023-01-18T05:58:40.942Z,97643.56
2023-01-18T05:59:12.414Z,97644.25
2023-01-18T05:59:43.876Z,97638.00
2023-01-18T06:00:15.347Z,97643.09
2023-01-18T06:00:46.871Z,97641.50
2023-01-18T06:01:18.355Z,97640.28
2023-01-18T06:01:49.813Z,97643.44
2023-01-18T06:02:21.306Z,97640.72
2023-01-18T06:02:52.663Z,97649.69
2023-01-18T06:03:24.069Z,97644.44
2023-01-18T06:03:55.483Z,97647.88
2023-01-18T06:04:26.915Z,97651.03
2023-01-18T06:04:58.338Z,97649.00
2023-01-18T06:05:29.850Z,97646.72
2023-01-18T06:06:01.319Z,97647.06
2023-01-18T06:06:34.682Z,97650.13
2023-01-18T06:07:06.214Z,97652.06
2023-01-18T06:07:37.632Z,97650.94
2023-01-18T06:08:09.124Z,97654.78
2023-01-18T06:08:40.523Z,97656.38
2023-01-18T06:09:11.938Z,97653.22
2023-01-18T06:09:43.412Z,97654.69
2023-01-18T06:10:14.824Z,97658.19
2023-01-18T06:10:46.340Z,97660.34
2023-01-18T06:11:17.802Z,97662.63
2023-01-18T06:11:49.233Z,97660.25
2023-01-18T06:12:20.918Z,97661.03
2023-01-18T06:12:52.445Z,97660.34
2023-01-18T06:13:23.868Z,97661.94
2023-01-18T06:13:55.345Z,97663.41
2023-01-18T06:14:26.855Z,97662.16
2023-01-18T06:14:58.251Z,97659.78
2023-01-18T06:15:29.740Z,97659.78
2023-01-18T06:16:01.276Z,97665.25
2023-01-18T06:16:32.944Z,97666.72
2023-01-18T06:17:04.369Z,97659.00
2023-01-18T06:17:38.938Z,97666.38
2023-01-18T06:18:10.357Z,97667.97
2023-01-18T06:18:41.813Z,97663.75
2023-01-18T06:19:13.247Z,97663.75
2023-01-18T06:19:44.685Z,97670.78
2023-01-18T06:20:16.117Z,97663.41
2023-01-18T06:20:47.512Z,97670.34
2023-01-18T06:21:18.931Z,97669.31
2023-01-18T06:21:50.343Z,97672.03
2023-01-18T06:22:21.831Z,97673.53
2023-01-18T06:22:53.245Z,97674.31
2023-01-18T06:23:24.652Z,97673.19
2023-01-18T06:23:56.092Z,97673.53
2023-01-18T06:24:27.535Z,97674.66
2023-01-18T06:24:58.979Z,97671.13
2023-01-18T06:25:30.472Z,97678.63
2023-01-18T06:26:01.889Z,97674.75
2023-01-18T06:26:33.521Z,97675.78
2023-01-18T06:27:04.929Z,97680.91
2023-01-18T06:27:36.359Z,97680.44
2023-01-18T06:28:07.775Z,97677.72
2023-01-18T06:28:39.200Z,97685.91
2023-01-18T06:29:10.631Z,97685.56
2023-01-18T06:29:42.078Z,97685.56
2023-01-18T06:30:13.529Z,97687.47
2023-01-18T06:30:44.955Z,97687.47
2023-01-18T06:31:16.389Z,97691.44
2023-01-18T06:31:47.908Z,97692.25
2023-01-18T06:32:19.374Z,97688.38
2023-01-18T06:32:50.788Z,97684.75
2023-01-18T06:33:22.214Z,97685.09
2023-01-18T06:33:53.645Z,97697.25
2023-01-18T06:34:25.081Z,97691.69
2023-01-18T06:34:56.513Z,97693.28
2023-01-18T06:35:28.012Z,97691.69
2023-01-18T06:35:59.495Z,97688.28
2023-01-18T06:36:31.005Z,97696.91
2023-01-18T06:37:02.388Z,97695.31
2023-01-18T06:37:33.865Z,97689.88
2023-01-18T06:38:05.277Z,97694.53
2023-01-18T06:38:36.665Z,97694.53
2023-01-18T06:39:08.074Z,97696.78
2023-01-18T06:39:39.530Z,97695.22
2023-01-18T06:40:10.946Z,97693.63
2023-01-18T06:40:42.461Z,97699.84
2023-01-18T06:41:15.469Z,97696.44
2023-01-18T06:41:46.900Z,97700.66
2023-01-18T06:42:18.277Z,97700.31
2023-01-18T06:42:49.700Z,97701.22
2023-01-18T06:43:21.148Z,97702.25
2023-01-18T06:43:52.580Z,97701.44
2023-01-18T06:44:26.632Z,97703.03
2023-01-18T06:44:57.996Z,97699.53
2023-01-18T06:45:29.479Z,97701.09
2023-01-18T06:46:01.125Z,97708.16
2023-01-18T06:46:32.687Z,97703.84
2023-01-18T06:47:04.171Z,97704.97
2023-01-18T06:47:35.618Z,97713.25
2023-01-18T06:48:07.045Z,97706.22
2023-01-18T06:48:38.502Z,97702.00
2023-01-18T06:49:09.970Z,97710.53
2023-01-18T06:49:41.402Z,97714.72
2023-01-18T06:50:12.955Z,97710.06
2023-01-18T06:50:44.492Z,97710.75
2023-01-18T06:51:16.012Z,97714.28
2023-01-18T06:51:47.459Z,97709.97
2023-01-18T06:52:18.987Z,97712.00
2023-01-18T06:52:53.559Z,97710.41
2023-01-18T06:53:24.997Z,97708.81
2023-01-18T06:53:56.448Z,97709.63
2023-01-18T06:54:27.886Z,97708.38
2023-01-18T06:54:59.331Z,97720.06
2023-01-18T06:55:30.848Z,97715.75
2023-01-18T06:56:02.267Z,97720.06
2023-01-18T06:56:33.876Z,97718.94
2023-01-18T06:57:05.311Z,97713.94
2023-01-18T06:57:36.720Z,97713.94
2023-01-18T06:58:08.197Z,97718.25
2023-01-18T06:58:42.238Z,97721.75
2023-01-18T06:59:13.658Z,97720.97
2023-01-18T06:59:45.097Z,97717.78
2023-01-18T07:00:16.583Z,97714.28
2023-01-18T07:00:48.137Z,97715.06
2023-01-18T07:01:19.691Z,97720.88
2023-01-18T07:01:53.196Z,97721.66
2023-01-18T07:02:24.601Z,97722.44
2023-01-18T07:02:56.352Z,97726.41
2023-01-18T07:03:27.912Z,97725.97
2023-01-18T07:03:59.405Z,97725.16
2023-01-18T07:04:30.859Z,97726.41
2023-01-18T07:05:02.276Z,97718.25
2023-01-18T07:05:33.686Z,97724.50
2023-01-18T07:06:05.125Z,97726.41
2023-01-18T07:06:36.588Z,97728.00
2023-01-18T07:07:08.087Z,97724.84
2023-01-18T07:07:39.470Z,97728.34
2023-01-18T07:08:10.895Z,97725.97
2023-01-18T07:08:42.296Z,97735.72
2023-01-18T07:09:13.726Z,97731.41
2023-01-18T07:09:45.174Z,97733.13
2023-01-18T07:10:16.941Z,97728.34
2023-01-18T07:10:48.391Z,97728.34
2023-01-18T07:11:19.906Z,97726.41
2023-01-18T07:11:51.353Z,97731.06
2023-01-18T07:12:22.816Z,97730.28
2023-01-18T07:12:54.231Z,97728.34
2023-01-18T07:13:25.665Z,97724.94
2023-01-18T07:13:57.118Z,97731.88
2023-01-18T07:14:28.490Z,97726.41
2023-01-18T07:15:04.854Z,97731.06
2023-01-18T07:15:41.211Z,97732.66
2023-01-18T07:16:12.732Z,97732.56
2023-01-18T07:16:44.185Z,97733.69
2023-01-18T07:17:15.633Z,97732.56
2023-01-18T07:17:47.074Z,97733.00
2023-01-18T07:18:18.525Z,97740.50
2023-01-18T07:18:49.922Z,97733.91
2023-01-18T07:19:21.370Z,97747.53
2023-01-18T07:19:52.768Z,97740.84
2023-01-18T07:20:24.163Z,97745.84
2023-01-18T07:20:56.982Z,97749.34
2023-01-18T07:21:28.407Z,97743.91
2023-01-18T07:21:59.801Z,97741.97
2023-01-18T07:22:31.205Z,97740.84
2023-01-18T07:23:02.617Z,97749.34
2023-01-18T07:23:34.027Z,97744.25
2023-01-18T07:24:05.486Z,97752.41
2023-01-18T07:24:36.905Z,97754.47
2023-01-18T07:25:08.322Z,97752.88
2023-01-18T07:25:39.828Z,97750.47
2023-01-18T07:26:11.234Z,97744.25
2023-01-18T07:26:42.818Z,97752.88
2023-01-18T07:27:14.286Z,97754.91
2023-01-18T07:27:45.728Z,97748.56
2023-01-18T07:28:17.178Z,97757.88
2023-01-18T07:28:48.623Z,97757.19
2023-01-18T07:29:20.049Z,97754.81
2023-01-18T07:29:51.395Z,97759.44
2023-01-18T07:30:22.824Z,97759.44
2023-01-18T07:30:54.227Z,97766.59
2023-01-18T07:31:25.668Z,97762.53
2023-01-18T07:31:57.150Z,97760.59
2023-01-18T07:32:28.592Z,97764.56
2023-01-18T07:33:00.471Z,97755.13
2023-01-18T07:33:32.069Z,97761.03
2023-01-18T07:34:03.466Z,97768.41
2023-01-18T07:34:34.928Z,97757.97
2023-01-18T07:35:06.304Z,97764.09
2023-01-18T07:35:37.710Z,97761.72
2023-01-18T07:36:09.263Z,97767.28
2023-01-18T07:36:40.638Z,97763.75
2023-01-18T07:37:12.010Z,97768.41
2023-01-18T07:37:45.927Z,97766.03
2023-01-18T07:38:17.390Z,97768.88
2023-01-18T07:38:48.833Z,97765.34
2023-01-18T07:39:22.756Z,97768.06
2023-01-18T07:39:54.135Z,97768.41
2023-01-18T07:40:25.633Z,97766.03
2023-01-18T07:40:57.010Z,97765.25
2023-01-18T07:41:30.168Z,97768.75
2023-01-18T07:42:02.396Z,97767.28
2023-01-18T07:42:33.785Z,97773.53
2023-01-18T07:43:05.196Z,97776.59
2023-01-18T07:43:36.700Z,97769.56
2023-01-18T07:44:08.135Z,97768.41
2023-01-18T07:44:39.662Z,97771.50
2023-01-18T07:45:11.040Z,97773.75
2023-01-18T07:45:42.450Z,97778.06
2023-01-18T07:46:14.037Z,97775.69
2023-01-18T07:46:45.538Z,97779.31
2023-01-18T07:47:16.964Z,97777.06
2023-01-18T07:47:48.394Z,97781.59
2023-01-18T07:48:19.856Z,97783.19
2023-01-18T07:48:51.257Z,97773.53
2023-01-18T07:49:22.692Z,97779.31